الصفحة الرئيسية
METAR-TAF:

METAR-TAF

مطار :

Bíldudalur, أيسلندا

دائرة عرض: 65-38-30N, خط طول: 23-32-45W, ارتفاع: 8 متر

مراقبة الطقس الحالي

تاريخ ووقت الإصدار 9 دقيقة قبل الساعة 10:00UTC
ريح 5 عقدة من الشمال/الشمال الغربي
درجة الحرارة 2°درجة مئوية
الرطوبة 60%
ضغط 976 hPa
الرؤية 10 كم أو أكثر
غيوم متفرقة على ارتفاع 3000 قدم
غيوم مفككة على ارتفاع 4000 قدم

METAR: BIBD 221000Z 33005KT 9999 SCT030 BKN040 02/M05 Q0976

زمن: 10:09 (10:09 UTC)

توقعات

تاريخ ووقت الإصدار 20ساعات و 44 دقيقة قبل الساعة 13:25UTC
التوقعات صالحة من21 الساعة 14 UTC إلى 21 الساعة 23 UTC
ريح 5 عقدة من الجنوب الغربي
الرؤية 10 كم أو أكثر
غيوم متفرقة على ارتفاع 2500 قدم
غيوم مفككة على ارتفاع 3000 قدم
مؤقت
من 21 الساعة 14 UTC إلى 21 الساعة 23 UTC
ريح 18 عقدة من الجنوب الغربي
الرؤية: 1500 متر
غيوم مفككة على ارتفاع 700 قدم, مزنة ركامية.
ملبد بالغيوم على ارتفاع 2500 قدم
زخات ثلجية

TAF: BIBD 211325Z 2114/2123 22005KT 9999 SCT025 BKN030 TEMPO 2114/2123 22018KT 1500 SHSN BKN007CB OVC025

أرصاد الطقس والتوقعات من أكثر من 4000 مطار (تقارير الطقس للمطار METAR والتنبؤ بالطقس بالمطارTAF).

المحطات المتاحة هي النقط الصفراء والحمراء على الخريطة.

حرك المؤشر فوق النقطة لمعرفة اسم المحطة.

ثم انقر لمعرفة أرصاد وتوقعات الطقس.

لتغيير الخارطة: اضغط على الأزرار الخضراء مع رمز الصليب الأسود للتكبير. على الزر الأخضر مع شرطة للتصغير، أو على الأسهم الخضراء للخرائط المجاورة.


METAR-TAF: